Time;durP1;ratioP1;P1;durP2;ratioP2;P2;SDS_P1;SDS_P2;PMS_P1;PMS_P2;Temp;Humidity;BMP_temperature;BMP_pressure;BME280_temperature;BME280_humidity;BME280_pressure;Samples;Min_cycle;Max_cycle;Signal;HPM_P1;HPM_P2
2024/02/10 00:02:24;;;;;;;18.58;5.13;;;11.10;88.60;;;;;;9175031;19;20022;-69
2024/02/10 00:05:29;;;;;;;11.73;4.20;;;11.10;88.60;;;;;;9169809;19;20037;-69
2024/02/10 00:08:38;;;;;;;9.00;4.82;;;11.10;88.60;;;;;;9172625;19;20023;-69
2024/02/10 00:11:46;;;;;;;10.73;4.20;;;11.00;88.60;;;;;;9174628;19;20361;-69
2024/02/10 00:14:54;;;;;;;9.93;4.45;;;11.00;88.60;;;;;;9173751;19;20026;-69
2024/02/10 00:17:59;;;;;;;12.32;4.68;;;11.00;88.60;;;;;;9171698;19;20645;-69
2024/02/10 00:21:07;;;;;;;15.55;5.15;;;11.00;88.60;;;;;;9173303;19;20500;-69
2024/02/10 00:24:13;;;;;;;10.18;4.53;;;11.00;88.60;;;;;;9172416;19;20105;-69
2024/02/10 00:27:23;;;;;;;8.27;4.38;;;11.10;88.80;;;;;;9173534;19;20018;-69
2024/02/10 00:30:30;;;;;;;13.77;4.30;;;11.00;88.50;;;;;;9173526;19;20018;-70
2024/02/10 00:33:38;;;;;;;10.82;4.38;;;11.00;88.50;;;;;;9173183;19;20015;-70
2024/02/10 00:36:44;;;;;;;11.95;4.28;;;11.10;88.70;;;;;;9171913;19;20021;-70
2024/02/10 00:39:52;;;;;;;14.15;4.22;;;11.00;88.60;;;;;;9170828;19;20025;-69
2024/02/10 00:43:00;;;;;;;13.50;4.72;;;11.00;88.70;;;;;;9173478;19;20132;-69
2024/02/10 00:46:09;;;;;;;22.40;4.45;;;11.00;88.90;;;;;;9173431;19;20019;-69
2024/02/10 00:49:14;;;;;;;10.13;5.20;;;11.00;88.70;;;;;;9171632;19;20021;-68
2024/02/10 00:52:22;;;;;;;10.90;5.18;;;11.00;88.90;;;;;;9171985;19;20030;-69
2024/02/10 00:55:30;;;;;;;13.82;4.90;;;11.10;89.30;;;;;;9171396;19;20018;-68
2024/02/10 00:58:44;;;;;;;12.35;4.72;;;11.10;89.10;;;;;;9173673;19;20373;-69
2024/02/10 01:01:51;;;;;;;12.07;5.03;;;11.00;89.20;;;;;;9180923;19;20048;-69
2024/02/10 01:04:59;;;;;;;16.30;4.90;;;11.00;89.10;;;;;;9177513;19;20492;-69
2024/02/10 01:08:05;;;;;;;10.68;4.93;;;11.10;89.20;;;;;;9180169;19;20011;-68
2024/02/10 01:11:19;;;;;;;9.88;4.22;;;11.00;89.10;;;;;;9181593;19;20048;-68
2024/02/10 01:14:29;;;;;;;14.35;5.43;;;11.10;89.30;;;;;;9180559;19;20098;-69
2024/02/10 01:17:37;;;;;;;19.42;7.88;;;11.10;89.30;;;;;;9178525;19;20022;-69
2024/02/10 01:20:43;;;;;;;12.68;5.10;;;11.10;89.10;;;;;;9181040;19;20027;-72
2024/02/10 01:23:50;;;;;;;13.35;5.20;;;11.00;89.20;;;;;;9178072;19;20026;-69
2024/02/10 01:26:56;;;;;;;15.65;5.40;;;11.10;89.50;;;;;;9179399;19;20014;-69
2024/02/10 01:30:08;;;;;;;20.40;4.80;;;11.20;89.30;;;;;;9181766;19;20027;-69
2024/02/10 01:33:14;;;;;;;9.10;4.55;;;11.10;89.20;;;;;;9179971;19;20062;-69
2024/02/10 01:36:22;;;;;;;10.70;5.18;;;11.10;89.30;;;;;;9178276;19;20010;-69
2024/02/10 01:39:27;;;;;;;21.15;5.40;;;11.20;89.60;;;;;;9178580;19;20014;-69
2024/02/10 01:42:39;;;;;;;12.63;4.63;;;11.20;89.40;;;;;;9179462;19;20029;-69
2024/02/10 01:45:50;;;;;;;18.02;5.28;;;11.20;89.60;;;;;;9178555;19;20463;-71
2024/02/10 01:48:59;;;;;;;14.35;4.68;;;11.30;89.70;;;;;;9180311;19;20019;-69
2024/02/10 01:52:05;;;;;;;9.93;4.05;;;11.30;89.40;;;;;;9179874;19;20023;-69
2024/02/10 01:55:13;;;;;;;14.23;4.20;;;11.20;89.80;;;;;;9179338;19;20476;-69
2024/02/10 01:58:22;;;;;;;13.98;5.05;;;11.20;89.50;;;;;;9179312;19;20015;-69
2024/02/10 02:01:32;;;;;;;10.15;4.15;;;11.40;89.80;;;;;;9177357;19;20026;-69
2024/02/10 02:04:38;;;;;;;22.25;5.78;;;11.30;89.80;;;;;;9172166;19;20385;-69
2024/02/10 02:07:48;;;;;;;21.10;4.75;;;11.20;89.50;;;;;;9177386;19;20644;-68
2024/02/10 02:10:54;;;;;;;13.23;3.78;;;11.30;89.40;;;;;;9177539;19;20010;-68
2024/02/10 02:14:02;;;;;;;8.52;4.10;;;11.30;89.40;;;;;;9176978;19;20019;-68
2024/02/10 02:17:10;;;;;;;16.52;4.13;;;11.30;89.60;;;;;;9176459;19;20471;-68
2024/02/10 02:20:20;;;;;;;9.05;3.45;;;11.30;89.50;;;;;;9179263;19;20026;-68
2024/02/10 02:23:28;;;;;;;9.95;3.65;;;11.30;89.60;;;;;;9176981;19;20519;-68
2024/02/10 02:26:35;;;;;;;8.80;3.83;;;11.40;89.90;;;;;;9177842;19;20021;-68
2024/02/10 02:29:41;;;;;;;10.88;3.97;;;11.40;90.10;;;;;;9178119;19;20011;-69
2024/02/10 02:32:50;;;;;;;12.27;3.92;;;11.30;89.50;;;;;;9175804;19;20015;-69
2024/02/10 02:35:56;;;;;;;14.18;4.22;;;11.50;89.70;;;;;;9177426;19;20014;-69
2024/02/10 02:39:08;;;;;;;13.48;3.97;;;11.40;89.70;;;;;;9175408;19;20017;-68
2024/02/10 02:42:30;;;;;;;9.15;4.05;;;11.40;89.60;;;;;;9177643;19;20078;-69
2024/02/10 02:45:38;;;;;;;11.13;4.18;;;11.30;89.80;;;;;;9176396;19;20022;-69
2024/02/10 02:48:43;;;;;;;13.80;4.38;;;11.40;89.80;;;;;;9177640;19;20078;-68
2024/02/10 02:51:51;;;;;;;10.27;3.60;;;11.30;89.90;;;;;;9178111;19;20023;-68
2024/02/10 02:55:00;;;;;;;10.65;4.35;;;11.40;89.70;;;;;;9175416;19;20021;-68
2024/02/10 02:58:09;;;;;;;11.20;4.35;;;11.30;89.70;;;;;;9172942;19;20025;-69
2024/02/10 03:01:15;;;;;;;10.90;4.38;;;11.30;89.70;;;;;;9176768;19;20018;-68
2024/02/10 03:04:23;;;;;;;8.45;4.75;;;11.30;89.50;;;;;;9173047;19;20020;-69
2024/02/10 03:07:30;;;;;;;10.98;4.35;;;11.30;89.60;;;;;;9175946;19;20031;-69
2024/02/10 03:10:41;;;;;;;13.40;5.35;;;11.40;89.60;;;;;;9176317;19;20024;-69
2024/02/10 03:13:48;;;;;;;12.60;5.03;;;11.30;89.60;;;;;;9175757;19;20010;-69
2024/02/10 03:16:55;;;;;;;11.95;5.30;;;11.40;89.60;;;;;;9175394;19;20018;-69
2024/02/10 03:20:01;;;;;;;13.43;4.82;;;11.30;89.90;;;;;;9176362;19;20049;-68
2024/02/10 03:23:13;;;;;;;13.68;5.20;;;11.30;89.60;;;;;;9175637;19;20021;-70
2024/02/10 03:26:21;;;;;;;11.07;5.22;;;11.40;89.70;;;;;;9174532;19;20011;-70
2024/02/10 03:29:29;;;;;;;18.73;6.07;;;11.40;89.50;;;;;;9174723;19;20018;-70
2024/02/10 03:32:35;;;;;;;8.63;5.45;;;11.40;89.40;;;;;;9176705;19;20019;-70
2024/02/10 03:35:42;;;;;;;13.45;5.85;;;11.40;89.50;;;;;;9173870;19;20022;-70
2024/02/10 03:38:48;;;;;;;15.55;6.82;;;11.40;89.80;;;;;;9172857;19;20051;-70
2024/02/10 03:41:58;;;;;;;11.60;5.55;;;11.40;90.10;;;;;;9176305;19;20021;-70
2024/02/10 03:45:05;;;;;;;12.57;6.60;;;11.40;89.60;;;;;;9175505;19;20377;-70
2024/02/10 03:48:13;;;;;;;12.15;6.82;;;11.40;89.90;;;;;;9175891;19;20054;-70
2024/02/10 03:51:18;;;;;;;12.93;6.85;;;11.50;89.90;;;;;;9173071;19;20499;-69
2024/02/10 03:54:26;;;;;;;16.88;7.45;;;11.30;89.60;;;;;;9176213;19;20018;-69
2024/02/10 03:57:34;;;;;;;12.45;7.32;;;11.40;89.60;;;;;;9174488;19;20457;-69
2024/02/10 04:00:43;;;;;;;20.02;7.15;;;11.40;89.60;;;;;;9174938;19;20445;-69
2024/02/10 04:03:49;;;;;;;9.73;5.50;;;11.30;89.60;;;;;;9174130;19;20014;-69
2024/02/10 04:06:57;;;;;;;12.95;6.57;;;11.30;89.50;;;;;;9174607;19;20023;-69
2024/02/10 04:10:02;;;;;;;13.65;7.47;;;11.30;89.80;;;;;;9174273;19;20018;-70
2024/02/10 04:13:13;;;;;;;14.43;7.10;;;11.30;89.70;;;;;;9174012;19;20011;-69
2024/02/10 04:16:18;;;;;;;10.90;6.30;;;11.30;89.70;;;;;;9173894;19;20481;-69
2024/02/10 04:19:26;;;;;;;16.73;7.57;;;11.30;89.60;;;;;;9171985;19;20014;-69
2024/02/10 04:22:32;;;;;;;10.15;6.20;;;11.30;89.60;;;;;;9173997;19;20053;-69
2024/02/10 04:25:41;;;;;;;16.25;7.32;;;11.30;89.80;;;;;;9170339;19;20015;-68
2024/02/10 04:28:49;;;;;;;17.05;7.43;;;11.30;89.50;;;;;;9172507;19;20019;-69
2024/02/10 04:31:59;;;;;;;21.58;7.82;;;11.20;89.60;;;;;;9171284;19;20368;-68
2024/02/10 04:35:05;;;;;;;11.80;6.70;;;11.30;89.50;;;;;;9177554;19;20337;-69
2024/02/10 04:38:13;;;;;;;12.35;6.88;;;11.20;89.40;;;;;;9179546;19;20025;-69
2024/02/10 04:41:19;;;;;;;11.68;6.75;;;11.20;89.50;;;;;;9181430;19;20044;-69
2024/02/10 04:44:29;;;;;;;14.60;7.35;;;11.10;89.50;;;;;;9182421;19;20014;-69
2024/02/10 04:47:34;;;;;;;16.38;7.63;;;11.10;89.40;;;;;;9181868;19;20480;-69
2024/02/10 04:50:43;;;;;;;13.82;7.53;;;11.10;89.50;;;;;;9183059;19;20492;-69
2024/02/10 04:53:48;;;;;;;15.68;7.78;;;11.10;89.50;;;;;;9181285;19;20027;-70
2024/02/10 04:56:58;;;;;;;13.43;7.72;;;11.00;89.40;;;;;;9181679;19;20018;-69
2024/02/10 05:00:12;;;;;;;14.88;8.38;;;10.90;89.30;;;;;;9182059;19;20011;-69
2024/02/10 05:03:19;;;;;;;16.55;8.20;;;10.90;89.30;;;;;;9179179;19;20014;-70
2024/02/10 05:06:25;;;;;;;18.15;8.48;;;10.90;89.50;;;;;;9175292;19;20015;-70
2024/02/10 05:09:33;;;;;;;23.52;8.13;;;10.90;89.60;;;;;;9179542;19;20022;-69
2024/02/10 05:12:38;;;;;;;19.33;8.88;;;10.80;89.40;;;;;;9180858;19;20018;-69
2024/02/10 05:15:49;;;;;;;16.75;8.80;;;10.70;89.30;;;;;;9181887;19;20018;-69
2024/02/10 05:18:55;;;;;;;22.17;8.82;;;10.80;89.40;;;;;;9179592;19;20025;-69
2024/02/10 05:22:11;;;;;;;16.67;8.18;;;10.80;89.40;;;;;;9179460;19;20018;-70
2024/02/10 05:25:18;;;;;;;13.20;8.10;;;10.70;89.30;;;;;;9180394;19;20010;-69
2024/02/10 05:28:26;;;;;;;15.18;8.52;;;10.70;89.50;;;;;;9182105;19;20018;-70
2024/02/10 05:31:35;;;;;;;19.17;9.27;;;10.70;89.40;;;;;;9179001;19;20029;-69
2024/02/10 05:34:49;;;;;;;14.27;7.88;;;10.60;89.70;;;;;;9179727;19;20034;-69
2024/02/10 05:37:57;;;;;;;17.17;8.60;;;10.60;89.80;;;;;;9180140;19;20435;-69
2024/02/10 05:41:05;;;;;;;19.15;9.20;;;10.60;89.90;;;;;;9178411;19;20044;-69
2024/02/10 05:44:12;;;;;;;15.63;8.43;;;10.60;89.70;;;;;;9177155;19;20014;-69
2024/02/10 05:47:23;;;;;;;17.23;9.52;;;10.50;89.60;;;;;;9177628;19;20491;-69
2024/02/10 05:50:29;;;;;;;18.00;8.75;;;10.50;89.50;;;;;;9178031;19;20476;-69
2024/02/10 05:53:37;;;;;;;17.13;8.85;;;10.40;89.60;;;;;;9178471;19;20014;-68
2024/02/10 05:56:43;;;;;;;12.85;7.55;;;10.40;89.50;;;;;;9179826;19;20019;-69
2024/02/10 05:59:51;;;;;;;20.48;8.50;;;10.40;89.50;;;;;;9176544;19;20135;-70
2024/02/10 06:03:00;;;;;;;13.23;8.75;;;10.40;89.70;;;;;;9179913;19;20425;-69
2024/02/10 06:06:09;;;;;;;15.57;8.35;;;10.40;89.50;;;;;;9173759;19;20021;-69
2024/02/10 06:09:16;;;;;;;13.95;8.23;;;10.30;89.60;;;;;;9176667;19;20508;-69
2024/02/10 06:12:23;;;;;;;18.52;10.13;;;10.40;89.70;;;;;;9178696;19;20029;-71
2024/02/10 06:15:29;;;;;;;16.90;8.52;;;10.20;89.70;;;;;;9179267;19;20014;-71
2024/02/10 06:18:40;;;;;;;15.07;7.97;;;10.20;89.50;;;;;;9178158;19;20480;-70
2024/02/10 06:21:45;;;;;;;20.10;9.70;;;10.20;89.50;;;;;;9178963;19;20014;-68
2024/02/10 06:24:56;;;;;;;16.15;7.90;;;10.20;89.60;;;;;;9179074;19;20022;-69
2024/02/10 06:28:02;;;;;;;13.10;8.20;;;10.10;89.50;;;;;;9176767;19;20365;-69
2024/02/10 06:31:14;;;;;;;13.20;7.88;;;10.10;89.50;;;;;;9178167;19;20895;-70
2024/02/10 06:34:23;;;;;;;15.63;8.63;;;10.10;89.70;;;;;;9178980;19;20019;-70
2024/02/10 06:37:32;;;;;;;15.60;8.65;;;10.10;89.70;;;;;;9176796;19;20376;-69
2024/02/10 06:40:37;;;;;;;19.25;9.20;;;10.10;89.80;;;;;;9175928;19;20116;-69
2024/02/10 06:43:48;;;;;;;15.95;8.15;;;10.10;89.80;;;;;;9178381;19;20015;-70
2024/02/10 06:46:54;;;;;;;13.82;7.65;;;10.20;89.90;;;;;;9177239;19;20077;-70
2024/02/10 06:50:04;;;;;;;11.80;7.53;;;10.10;89.80;;;;;;9177742;19;20491;-68
2024/02/10 06:53:10;;;;;;;13.23;8.38;;;10.00;89.80;;;;;;9175060;19;20014;-68
2024/02/10 06:56:18;;;;;;;12.15;7.82;;;10.10;90.00;;;;;;9175454;19;20010;-69
2024/02/10 06:59:23;;;;;;;16.55;7.55;;;10.10;90.00;;;;;;9174052;19;20014;-69
2024/02/10 07:02:31;;;;;;;13.30;8.35;;;10.10;90.00;;;;;;9176470;19;20022;-69
2024/02/10 07:05:39;;;;;;;13.50;7.80;;;10.20;90.00;;;;;;9173522;19;20094;-69
2024/02/10 07:08:47;;;;;;;15.10;8.52;;;10.10;90.00;;;;;;9174753;19;20022;-70
2024/02/10 07:11:53;;;;;;;13.48;7.90;;;10.20;90.10;;;;;;9177808;19;20022;-69
2024/02/10 07:15:00;;;;;;;18.63;8.55;;;10.20;90.00;;;;;;9176842;19;20773;-69
2024/02/10 07:18:07;;;;;;;13.32;8.57;;;10.20;90.10;;;;;;9175962;19;20027;-69
2024/02/10 07:21:17;;;;;;;16.85;8.23;;;10.20;90.20;;;;;;9176326;19;20019;-69
2024/02/10 07:24:24;;;;;;;11.98;7.53;;;10.20;90.10;;;;;;9174913;19;20404;-69
2024/02/10 07:27:33;;;;;;;13.85;8.10;;;10.20;90.00;;;;;;9177491;19;20019;-70
2024/02/10 07:30:38;;;;;;;11.93;7.22;;;10.30;90.20;;;;;;9174249;19;20022;-69
2024/02/10 07:33:48;;;;;;;17.98;8.80;;;10.30;90.20;;;;;;9176155;19;20010;-70
2024/02/10 07:36:58;;;;;;;13.75;8.57;;;10.30;90.20;;;;;;9174549;19;20449;-69
2024/02/10 07:40:07;;;;;;;14.80;7.97;;;10.40;90.10;;;;;;9175186;19;20102;-69
2024/02/10 07:43:13;;;;;;;12.95;7.43;;;10.30;90.10;;;;;;9174773;19;20042;-69
2024/02/10 07:46:21;;;;;;;11.73;7.22;;;10.30;90.20;;;;;;9175810;19;20029;-69
2024/02/10 07:49:26;;;;;;;13.95;7.88;;;10.50;90.20;;;;;;9173738;19;20006;-69
2024/02/10 07:52:40;;;;;;;12.07;7.05;;;10.40;90.20;;;;;;9175194;19;20010;-70
2024/02/10 07:55:46;;;;;;;11.73;7.13;;;10.50;90.30;;;;;;9174834;19;20010;-70
2024/02/10 07:58:56;;;;;;;12.02;7.35;;;10.50;90.30;;;;;;9174473;19;20486;-70
2024/02/10 08:02:01;;;;;;;11.77;7.30;;;10.40;90.20;;;;;;9173715;19;20493;-69
2024/02/10 08:05:10;;;;;;;13.93;7.30;;;10.50;90.20;;;;;;9169081;19;20018;-70
2024/02/10 08:08:21;;;;;;;15.77;7.90;;;10.40;90.30;;;;;;9171689;19;20018;-69
2024/02/10 08:11:29;;;;;;;10.70;7.10;;;10.50;90.40;;;;;;9175930;19;20021;-69
2024/02/10 08:14:36;;;;;;;14.73;6.38;;;10.40;90.40;;;;;;9175206;19;20367;-70
2024/02/10 08:17:44;;;;;;;11.90;6.32;;;10.50;90.40;;;;;;9175778;19;20022;-71
2024/02/10 08:20:50;;;;;;;11.45;7.05;;;10.60;90.40;;;;;;9171872;19;20636;-69
2024/02/10 08:24:00;;;;;;;11.38;7.45;;;10.60;90.40;;;;;;9173773;19;20022;-69
2024/02/10 08:27:08;;;;;;;11.68;7.15;;;10.60;90.40;;;;;;9174366;19;20014;-70
2024/02/10 08:30:16;;;;;;;13.80;7.35;;;10.60;90.30;;;;;;9173821;19;20007;-71
2024/02/10 08:33:22;;;;;;;14.32;7.40;;;10.70;90.60;;;;;;9173883;19;20056;-71
2024/02/10 08:36:31;;;;;;;11.52;7.55;;;10.70;90.50;;;;;;9173907;19;20021;-70
2024/02/10 08:39:39;;;;;;;12.20;7.85;;;10.80;90.50;;;;;;9175043;19;20018;-69
2024/02/10 08:42:50;;;;;;;11.98;7.43;;;10.80;90.80;;;;;;9174288;19;20006;-70
2024/02/10 08:45:57;;;;;;;15.75;8.23;;;10.90;90.80;;;;;;9174781;19;20038;-70
2024/02/10 08:49:06;;;;;;;13.68;7.50;;;10.90;90.70;;;;;;9170918;19;20011;-69
2024/02/10 08:52:15;;;;;;;15.45;8.25;;;10.90;90.60;;;;;;9169765;19;20022;-70
2024/02/10 08:55:27;;;;;;;15.38;7.68;;;11.10;90.70;;;;;;9172065;19;20014;-70
2024/02/10 08:58:33;;;;;;;11.45;6.80;;;11.10;90.70;;;;;;9173708;19;20030;-70
2024/02/10 09:01:43;;;;;;;11.98;7.03;;;11.20;90.80;;;;;;9172282;19;20023;-70
2024/02/10 09:04:50;;;;;;;9.60;6.22;;;11.20;90.80;;;;;;9169218;19;20082;-71
2024/02/10 09:07:59;;;;;;;10.40;6.25;;;11.20;90.70;;;;;;9170279;19;20026;-71
2024/02/10 09:11:07;;;;;;;16.30;5.47;;;11.30;90.80;;;;;;9170887;19;20044;-69
2024/02/10 09:14:15;;;;;;;9.95;5.80;;;11.30;91.00;;;;;;9172721;19;20022;-71
2024/02/10 09:17:21;;;;;;;11.30;6.20;;;11.40;90.80;;;;;;9168705;19;20011;-70
2024/02/10 09:20:31;;;;;;;8.98;5.80;;;11.40;90.70;;;;;;9173558;19;20006;-69
2024/02/10 09:23:36;;;;;;;12.50;6.03;;;11.50;90.80;;;;;;9178065;19;20021;-69
2024/02/10 09:26:46;;;;;;;11.38;6.03;;;11.50;90.80;;;;;;9178759;19;20049;-69
2024/02/10 09:29:54;;;;;;;7.50;4.80;;;11.60;90.80;;;;;;9180932;19;20392;-69
2024/02/10 09:33:01;;;;;;;9.88;4.75;;;11.60;90.70;;;;;;9177975;19;20010;-69
2024/02/10 09:36:11;;;;;;;9.77;5.22;;;11.70;90.70;;;;;;9181492;19;20022;-70
2024/02/10 09:39:20;;;;;;;7.07;4.68;;;11.60;90.60;;;;;;9179970;19;20019;-69
2024/02/10 09:42:32;;;;;;;7.32;5.18;;;11.80;90.70;;;;;;9176313;19;20112;-69
2024/02/10 09:45:45;;;;;;;7.68;4.75;;;11.70;90.60;;;;;;9180264;19;20018;-69
2024/02/10 09:48:53;;;;;;;8.15;4.18;;;11.80;90.60;;;;;;9179354;19;20010;-69
2024/02/10 09:52:00;;;;;;;7.80;4.70;;;12.00;90.60;;;;;;9179309;19;20630;-69
2024/02/10 09:55:07;;;;;;;5.78;4.18;;;12.00;90.60;;;;;;9180077;19;20014;-70
2024/02/10 09:58:18;;;;;;;6.13;4.07;;;12.00;90.50;;;;;;9180846;19;20021;-69
2024/02/10 10:01:24;;;;;;;8.07;4.38;;;12.10;90.60;;;;;;9178964;19;20345;-69
2024/02/10 10:04:32;;;;;;;7.93;4.43;;;12.00;90.50;;;;;;9172670;19;20026;-69
2024/02/10 10:07:38;;;;;;;6.57;4.15;;;12.10;90.50;;;;;;9178363;19;20014;-69
2024/02/10 10:10:45;;;;;;;7.72;4.60;;;12.10;90.50;;;;;;9179434;19;20029;-69
2024/02/10 10:13:54;;;;;;;7.07;4.32;;;11.90;90.50;;;;;;9176963;19;20107;-70
2024/02/10 10:17:03;;;;;;;9.07;4.32;;;12.20;90.50;;;;;;9178636;19;20638;-70
2024/02/10 10:20:12;;;;;;;7.78;4.07;;;12.30;90.60;;;;;;9178472;19;20010;-69
2024/02/10 10:23:20;;;;;;;9.38;4.60;;;12.40;90.60;;;;;;9178815;19;20017;-70
2024/02/10 10:26:25;;;;;;;6.80;3.70;;;12.50;90.50;;;;;;9178958;19;20022;-69
2024/02/10 10:29:37;;;;;;;7.40;3.75;;;12.50;90.70;;;;;;9178300;19;20503;-69
2024/02/10 10:32:44;;;;;;;5.25;4.10;;;12.60;90.60;;;;;;9177477;19;20493;-69
2024/02/10 10:35:51;;;;;;;4.63;3.67;;;12.60;90.60;;;;;;9178701;19;20014;-70
2024/02/10 10:38:58;;;;;;;6.70;3.22;;;12.70;90.40;;;;;;9179542;19;20006;-70
2024/02/10 10:42:06;;;;;;;6.78;3.28;;;12.90;90.40;;;;;;9176801;19;20022;-70
2024/02/10 10:45:17;;;;;;;6.38;4.13;;;12.80;90.30;;;;;;9178462;19;20010;-70
2024/02/10 10:48:24;;;;;;;10.18;3.83;;;12.90;90.40;;;;;;9177628;19;20023;-70
2024/02/10 10:51:43;;;;;;;7.60;4.22;;;12.90;90.40;;;;;;9178838;19;20479;-70
2024/02/10 10:54:53;;;;;;;7.40;3.85;;;12.90;90.30;;;;;;9177489;19;20022;-70
2024/02/10 10:58:04;;;;;;;6.93;3.40;;;13.00;90.30;;;;;;9177470;19;20745;-70
2024/02/10 11:01:20;;;;;;;6.38;3.35;;;13.10;90.30;;;;;;9176266;19;20019;-70
2024/02/10 11:04:30;;;;;;;6.65;3.42;;;13.00;90.30;;;;;;9173706;19;20583;-70
2024/02/10 11:07:38;;;;;;;4.35;3.10;;;13.10;90.40;;;;;;9173761;19;20110;-70
2024/02/10 11:10:48;;;;;;;5.07;2.88;;;13.20;90.50;;;;;;9174524;19;20026;-70
2024/02/10 11:13:57;;;;;;;5.45;2.88;;;13.20;90.30;;;;;;9176132;19;20022;-70
2024/02/10 11:17:13;;;;;;;7.75;2.75;;;13.30;90.30;;;;;;9177427;19;20487;-70
2024/02/10 11:20:20;;;;;;;5.72;2.97;;;13.40;90.30;;;;;;9175352;19;20014;-70
2024/02/10 11:23:26;;;;;;;4.20;2.65;;;13.40;90.30;;;;;;9173367;19;20019;-70
2024/02/10 11:26:38;;;;;;;5.47;2.97;;;13.50;90.20;;;;;;9177327;19;20439;-70
2024/02/10 11:29:46;;;;;;;4.32;2.42;;;13.50;90.20;;;;;;9174134;19;20775;-71
2024/02/10 11:32:56;;;;;;;4.28;2.40;;;13.60;90.20;;;;;;9173623;19;20015;-69
2024/02/10 11:36:02;;;;;;;4.85;2.35;;;13.70;90.20;;;;;;9174372;19;20430;-70
2024/02/10 11:39:11;;;;;;;3.90;2.30;;;13.90;90.30;;;;;;9175682;19;20015;-70
2024/02/10 11:42:18;;;;;;;2.90;2.00;;;13.90;90.30;;;;;;9171610;19;20034;-70
2024/02/10 11:45:26;;;;;;;4.13;2.70;;;14.10;90.50;;;;;;9173610;19;20380;-70
2024/02/10 11:48:34;;;;;;;3.53;2.03;;;14.10;90.20;;;;;;9175487;19;20430;-70
2024/02/10 11:51:43;;;;;;;2.28;1.90;;;14.20;90.20;;;;;;9173108;19;20028;-69
2024/02/10 11:54:52;;;;;;;7.20;2.35;;;14.40;90.50;;;;;;9172877;19;20479;-70
2024/02/10 11:58:00;;;;;;;2.83;1.60;;;14.30;89.90;;;;;;9174408;19;20034;-69
2024/02/10 12:01:06;;;;;;;4.57;2.47;;;14.40;90.00;;;;;;9174833;19;20386;-69
2024/02/10 12:04:18;;;;;;;7.13;1.98;;;14.50;89.60;;;;;;9168978;19;20130;-71
2024/02/10 12:07:28;;;;;;;5.38;1.75;;;14.50;89.40;;;;;;9174522;19;20018;-72
2024/02/10 12:10:40;;;;;;;9.05;3.00;;;14.60;89.20;;;;;;9174994;19;20026;-71
2024/02/10 12:13:47;;;;;;;7.13;2.40;;;14.60;89.10;;;;;;9172583;19;20014;-72
2024/02/10 12:17:01;;;;;;;5.13;2.58;;;14.70;89.10;;;;;;9173924;19;20010;-72
2024/02/10 12:20:16;;;;;;;5.85;2.10;;;14.70;88.90;;;;;;9173664;19;20017;-71
2024/02/10 12:23:24;;;;;;;7.20;2.63;;;14.80;88.90;;;;;;9173135;19;20689;-71
2024/02/10 12:26:29;;;;;;;6.70;1.98;;;14.90;89.00;;;;;;9175290;19;20010;-71
2024/02/10 12:29:39;;;;;;;4.78;1.73;;;14.90;88.90;;;;;;9172271;19;20030;-71
2024/02/10 12:32:45;;;;;;;6.03;2.00;;;14.90;88.60;;;;;;9172139;19;20027;-72
2024/02/10 12:35:56;;;;;;;6.75;1.80;;;15.00;88.80;;;;;;9174398;19;20014;-71
2024/02/10 12:39:05;;;;;;;5.78;3.50;;;15.00;88.80;;;;;;9175072;19;20363;-71
2024/02/10 12:42:15;;;;;;;11.43;5.22;;;15.00;88.70;;;;;;9173196;19;20010;-71
2024/02/10 12:45:20;;;;;;;6.93;2.35;;;15.00;88.30;;;;;;9172804;19;20018;-71
2024/02/10 12:48:27;;;;;;;3.78;2.13;;;15.10;88.10;;;;;;9174117;19;20022;-71
2024/02/10 12:51:37;;;;;;;4.25;2.05;;;15.10;88.90;;;;;;9171143;19;20417;-71
2024/02/10 12:54:46;;;;;;;4.75;3.10;;;15.10;87.80;;;;;;9176636;19;20015;-70
2024/02/10 12:57:52;;;;;;;16.20;4.47;;;15.20;88.40;;;;;;9182026;19;20488;-70
2024/02/10 13:01:01;;;;;;;8.75;2.40;;;15.20;87.90;;;;;;9180042;19;20025;-72
2024/02/10 13:04:07;;;;;;;3.88;2.00;;;15.20;87.80;;;;;;9173790;19;20017;-70
2024/02/10 13:07:18;;;;;;;8.35;2.58;;;15.20;87.80;;;;;;9180573;19;20019;-70
2024/02/10 13:10:25;;;;;;;4.10;2.50;;;15.30;87.50;;;;;;9182274;19;20022;-70
2024/02/10 13:13:36;;;;;;;4.85;3.03;;;15.20;87.20;;;;;;9182488;19;20019;-71
2024/02/10 13:16:41;;;;;;;7.78;3.33;;;15.20;87.20;;;;;;9179367;19;20365;-71
2024/02/10 13:19:49;;;;;;;4.55;2.72;;;15.20;87.10;;;;;;9181876;19;20025;-71
2024/02/10 13:22:58;;;;;;;3.25;2.25;;;15.20;87.50;;;;;;9181518;19;20052;-70
2024/02/10 13:26:12;;;;;;;8.57;2.40;;;15.20;87.30;;;;;;9184201;19;20014;-70
2024/02/10 13:29:18;;;;;;;6.70;2.80;;;15.20;87.10;;;;;;9179995;19;20011;-70
2024/02/10 13:32:26;;;;;;;4.15;2.90;;;15.20;87.10;;;;;;9181918;19;20014;-70
2024/02/10 13:35:32;;;;;;;7.38;3.25;;;15.20;87.20;;;;;;9180669;19;20521;-70
2024/02/10 14:02:36;;;;;;;6.97;2.95;;;15.10;86.50;;;;;;9181730;19;20015;-71
2024/02/10 14:05:14;;;;;;;6.18;3.15;;;15.10;86.60;;;;;;9174632;19;20010;-71
2024/02/10 14:08:41;;;;;;;4.10;2.88;;;15.10;86.70;;;;;;9176795;19;20099;-71
2024/02/10 14:11:55;;;;;;;3.72;2.28;;;15.10;86.30;;;;;;9177335;19;20025;-71
2024/02/10 14:15:02;;;;;;;4.57;2.47;;;15.10;86.30;;;;;;9175312;19;20026;-70
2024/02/10 14:18:13;;;;;;;6.90;2.28;;;15.10;86.20;;;;;;9179597;19;20011;-71
2024/02/10 14:21:28;;;;;;;3.58;2.20;;;15.10;86.30;;;;;;9178258;19;20002;-71
2024/02/10 14:24:36;;;;;;;8.10;2.95;;;15.00;86.00;;;;;;9176984;19;20034;-71
2024/02/10 14:27:47;;;;;;;8.90;3.05;;;15.10;86.50;;;;;;9178161;19;20373;-71
2024/02/10 14:30:55;;;;;;;4.13;2.97;;;15.10;86.30;;;;;;9176808;19;20014;-70
2024/02/10 14:34:02;;;;;;;6.88;3.70;;;15.00;85.90;;;;;;9176871;19;20055;-70
2024/02/10 14:37:26;;;;;;;4.05;2.95;;;15.00;86.10;;;;;;9178258;19;20018;-70
2024/02/10 14:40:35;;;;;;;4.82;2.85;;;15.00;86.60;;;;;;9176707;19;20011;-70
2024/02/10 14:43:46;;;;;;;4.72;2.85;;;14.80;85.80;;;;;;9176282;19;20014;-72
2024/02/10 14:46:54;;;;;;;3.95;2.85;;;15.00;85.80;;;;;;9177270;19;20021;-71
2024/02/10 14:50:01;;;;;;;4.40;2.72;;;15.00;85.90;;;;;;9178753;19;20369;-71
2024/02/10 14:53:07;;;;;;;9.52;3.20;;;15.00;85.80;;;;;;9177212;19;20021;-70
2024/02/10 14:56:22;;;;;;;4.65;2.67;;;15.00;85.80;;;;;;9177058;19;20021;-70
2024/02/10 14:59:30;;;;;;;4.75;2.75;;;14.90;85.60;;;;;;9177660;19;20018;-70
2024/02/10 15:02:40;;;;;;;5.30;2.88;;;14.90;85.70;;;;;;9172763;19;20018;-72
2024/02/10 15:05:46;;;;;;;7.65;3.20;;;14.90;85.70;;;;;;9171134;19;20503;-71
2024/02/10 15:08:56;;;;;;;9.23;4.32;;;14.90;85.60;;;;;;9175064;19;20018;-71
2024/02/10 15:12:02;;;;;;;5.90;3.20;;;14.90;85.50;;;;;;9176177;19;20014;-72
2024/02/10 15:15:13;;;;;;;8.68;4.40;;;14.80;85.40;;;;;;9176551;19;20591;-70
2024/02/10 15:18:18;;;;;;;5.95;3.50;;;14.80;85.30;;;;;;9176431;19;20047;-70
2024/02/10 15:21:29;;;;;;;7.22;3.15;;;14.80;85.60;;;;;;9175378;19;20007;-70
2024/02/10 15:24:35;;;;;;;6.38;4.05;;;14.80;85.30;;;;;;9173924;19;20365;-69
2024/02/10 15:27:44;;;;;;;3.97;3.00;;;14.70;85.30;;;;;;9174665;19;20021;-69
2024/02/10 15:30:54;;;;;;;5.80;3.20;;;14.70;85.40;;;;;;9175736;19;20018;-69
2024/02/10 15:34:03;;;;;;;5.68;3.60;;;14.70;85.40;;;;;;9173362;19;20502;-70
2024/02/10 15:37:10;;;;;;;4.22;2.60;;;14.70;85.40;;;;;;9173819;19;20051;-70
2024/02/10 15:40:20;;;;;;;4.15;2.90;;;14.60;85.30;;;;;;9175431;19;20033;-68
2024/02/10 15:43:30;;;;;;;4.90;2.70;;;14.50;85.30;;;;;;9175865;19;20020;-70
2024/02/10 15:46:41;;;;;;;3.63;2.70;;;14.50;85.20;;;;;;9176592;19;20022;-69
2024/02/10 15:49:54;;;;;;;4.70;2.55;;;14.50;85.20;;;;;;9173786;19;20043;-69
2024/02/10 15:53:03;;;;;;;3.78;2.63;;;14.40;85.20;;;;;;9173502;19;20018;-69
2024/02/10 15:56:10;;;;;;;8.73;2.90;;;14.40;85.90;;;;;;9171053;19;20026;-70
2024/02/10 15:59:20;;;;;;;4.20;3.03;;;14.40;85.30;;;;;;9175830;19;20018;-70
2024/02/10 16:02:28;;;;;;;5.88;3.90;;;14.40;85.70;;;;;;9175834;19;20026;-70
2024/02/10 16:05:36;;;;;;;6.00;3.65;;;14.30;85.40;;;;;;9168459;19;20019;-68
2024/02/10 16:08:46;;;;;;;4.95;3.67;;;14.30;85.40;;;;;;9173013;19;20011;-70
2024/02/10 16:11:55;;;;;;;12.52;6.40;;;14.30;85.50;;;;;;9175467;19;20475;-70
2024/02/10 16:15:00;;;;;;;16.80;7.25;;;14.20;85.40;;;;;;9173897;19;20018;-69
2024/02/10 16:18:14;;;;;;;8.77;5.07;;;14.20;85.60;;;;;;9174569;19;20014;-69
2024/02/10 16:21:25;;;;;;;6.65;4.45;;;14.20;85.40;;;;;;9174905;19;20047;-69
2024/02/10 16:24:33;;;;;;;5.45;4.13;;;14.10;85.30;;;;;;9174097;19;20022;-70
2024/02/10 16:27:40;;;;;;;4.95;3.20;;;14.10;85.50;;;;;;9174028;19;20115;-69
2024/02/10 16:30:47;;;;;;;5.32;3.95;;;14.10;85.40;;;;;;9180700;19;20022;-70
2024/02/10 16:33:58;;;;;;;5.55;3.72;;;14.00;85.60;;;;;;9183713;19;20026;-69
2024/02/10 16:37:12;;;;;;;6.25;3.80;;;14.00;85.40;;;;;;9182364;19;20021;-69